Time;durP1;ratioP1;P1;durP2;ratioP2;P2;SDS_P1;SDS_P2;PMS_P1;PMS_P2;Temp;Humidity;BMP_temperature;BMP_pressure;BME280_temperature;BME280_humidity;BME280_pressure;Samples;Min_cycle;Max_cycle;Signal;HPM_P1;HPM_P2
2022/09/22 00:01:31;;;;;;;8.02;2.22;;;9.00;99.90;;;;;;5117839;27;20054;-82
2022/09/22 00:04:01;;;;;;;5.97;2.22;;;9.00;99.90;;;;;;5100543;27;20503;-81
2022/09/22 00:06:33;;;;;;;8.10;2.30;;;9.00;99.90;;;;;;5117942;27;20553;-81
2022/09/22 00:09:00;;;;;;;7.75;2.58;;;9.00;99.90;;;;;;5117738;27;20528;-82
2022/09/22 00:11:34;;;;;;;8.02;2.72;;;9.10;99.90;;;;;;5100145;27;20039;-82
2022/09/22 00:14:04;;;;;;;10.25;2.50;;;9.00;99.90;;;;;;5117720;27;20723;-82
2022/09/22 00:16:36;;;;;;;7.47;2.80;;;9.00;99.90;;;;;;5100536;27;20511;-82
2022/09/22 00:19:04;;;;;;;6.28;2.10;;;9.10;99.90;;;;;;5117454;27;20039;-82
2022/09/22 00:21:30;;;;;;;6.88;2.20;;;9.00;99.90;;;;;;5117431;27;20042;-82
2022/09/22 00:23:55;;;;;;;7.35;2.28;;;9.00;99.90;;;;;;5117550;27;20050;-82
2022/09/22 00:26:23;;;;;;;6.18;2.17;;;9.00;99.90;;;;;;5117189;27;20035;-81
2022/09/22 00:28:50;;;;;;;7.35;1.70;;;9.00;99.90;;;;;;5117178;27;20035;-81
2022/09/22 00:31:22;;;;;;;3.50;1.40;;;8.90;99.90;;;;;;5116960;27;20046;-82
2022/09/22 00:33:49;;;;;;;4.20;1.23;;;8.80;99.90;;;;;;5100302;27;20043;-82
2022/09/22 00:36:16;;;;;;;3.67;1.13;;;8.80;99.90;;;;;;5117147;27;20031;-82
2022/09/22 00:38:43;;;;;;;5.15;1.65;;;8.70;99.90;;;;;;5100196;27;20060;-83
2022/09/22 00:41:16;;;;;;;5.30;1.77;;;8.70;99.90;;;;;;5116650;27;20400;-83
2022/09/22 00:43:47;;;;;;;6.55;1.95;;;8.70;99.90;;;;;;5100022;27;20539;-83
2022/09/22 00:46:19;;;;;;;5.80;1.83;;;8.70;99.90;;;;;;5100079;27;20047;-83
2022/09/22 00:49:05;;;;;;;7.88;2.58;;;8.80;99.90;;;;;;5116751;27;20526;-83
2022/09/22 00:51:35;;;;;;;6.40;2.50;;;8.70;99.90;;;;;;5116415;27;20031;-82
2022/09/22 00:54:05;;;;;;;7.00;2.58;;;8.80;99.90;;;;;;5117121;27;20039;-82
2022/09/22 00:56:37;;;;;;;7.80;3.05;;;8.80;99.90;;;;;;5116856;27;20047;-83
2022/09/22 00:59:08;;;;;;;7.55;2.42;;;8.80;99.90;;;;;;5117057;27;20377;-82
2022/09/22 01:01:35;;;;;;;7.22;2.50;;;8.80;99.90;;;;;;5116585;27;20039;-83
2022/09/22 01:04:02;;;;;;;6.60;2.70;;;8.80;99.90;;;;;;5116338;27;20496;-82
2022/09/22 01:06:28;;;;;;;7.43;2.80;;;8.90;99.90;;;;;;5116131;27;20504;-82
2022/09/22 01:08:55;;;;;;;9.90;3.15;;;8.90;99.90;;;;;;5098818;27;20045;-82
2022/09/22 01:11:21;;;;;;;31.42;2.45;;;8.90;99.90;;;;;;5115894;27;20042;-82
2022/09/22 01:14:14;;;;;;;9.88;0.90;;;8.80;99.90;;;;;;5116529;27;20076;-82
2022/09/22 01:16:58;;;;;;;6.78;1.05;;;8.70;99.90;;;;;;5116351;27;20032;-83
2022/09/22 01:19:41;;;;;;;2.92;1.00;;;8.60;99.90;;;;;;5099363;27;20043;-83
2022/09/22 01:22:31;;;;;;;2.35;1.10;;;8.50;99.90;;;;;;5116025;27;20050;-83
2022/09/22 01:25:28;;;;;;;2.03;0.95;;;8.40;99.90;;;;;;5116189;27;20069;-82
2022/09/22 01:28:31;;;;;;;2.65;1.00;;;8.30;99.90;;;;;;5099284;27;20126;-82
2022/09/22 01:31:13;;;;;;;3.92;1.05;;;8.30;99.90;;;;;;5097959;27;20628;-82
2022/09/22 01:33:51;;;;;;;2.78;1.10;;;8.30;99.90;;;;;;5098879;27;20043;-82
2022/09/22 01:36:26;;;;;;;5.60;1.50;;;8.30;99.90;;;;;;5099256;27;20036;-82
2022/09/22 01:39:04;;;;;;;4.72;1.90;;;8.30;99.90;;;;;;5115651;27;20137;-83
2022/09/22 01:42:00;;;;;;;6.60;2.35;;;8.30;99.90;;;;;;5115376;27;20043;-82
2022/09/22 01:44:51;;;;;;;4.63;1.92;;;8.30;99.90;;;;;;5098975;27;20087;-82
2022/09/22 01:47:34;;;;;;;5.05;1.67;;;8.30;99.90;;;;;;5115593;27;20500;-82
2022/09/22 01:50:25;;;;;;;4.78;1.58;;;8.30;99.90;;;;;;5098830;27;20403;-83
2022/09/22 01:52:54;;;;;;;8.68;2.65;;;8.20;99.90;;;;;;5097831;27;20523;-82
2022/09/22 01:55:27;;;;;;;8.73;2.67;;;8.30;99.90;;;;;;5115489;27;20035;-83
2022/09/22 01:58:06;;;;;;;8.00;2.83;;;8.30;99.90;;;;;;5098946;27;20035;-82
2022/09/22 02:00:33;;;;;;;7.60;2.80;;;8.30;99.90;;;;;;5115625;27;20035;-83
2022/09/22 02:03:14;;;;;;;6.30;2.13;;;8.30;99.90;;;;;;5098102;27;20443;-82
2022/09/22 02:05:48;;;;;;;3.05;1.02;;;8.30;99.90;;;;;;5115770;27;20039;-83
2022/09/22 02:08:43;;;;;;;5.07;1.25;;;8.20;99.90;;;;;;5115351;27;20038;-83
2022/09/22 02:11:15;;;;;;;3.17;0.90;;;8.20;99.90;;;;;;5097859;27;20393;-82
2022/09/22 02:13:42;;;;;;;2.92;1.00;;;8.10;99.90;;;;;;5098236;27;20047;-82
2022/09/22 02:16:10;;;;;;;4.57;1.05;;;8.00;99.90;;;;;;5115303;27;20031;-82
2022/09/22 02:18:45;;;;;;;2.05;1.20;;;7.90;99.90;;;;;;5097494;27;20034;-82
2022/09/22 02:21:13;;;;;;;1.42;0.90;;;8.00;99.90;;;;;;5115188;27;20092;-83
2022/09/22 02:23:39;;;;;;;1.85;1.00;;;7.90;99.90;;;;;;5098316;27;20087;-83
2022/09/22 02:26:05;;;;;;;4.75;1.40;;;7.90;99.90;;;;;;5114674;27;20035;-82
2022/09/22 02:28:34;;;;;;;2.63;1.08;;;7.90;99.90;;;;;;5097991;27;20077;-82
2022/09/22 02:31:03;;;;;;;5.10;1.42;;;7.90;99.90;;;;;;5114716;27;20039;-82
2022/09/22 02:33:32;;;;;;;7.90;1.83;;;7.90;99.90;;;;;;5114728;27;20084;-82
2022/09/22 02:36:06;;;;;;;5.93;1.55;;;7.90;99.90;;;;;;5097976;27;20039;-83
2022/09/22 02:38:43;;;;;;;5.55;2.47;;;7.90;99.90;;;;;;5115027;27;20648;-83
2022/09/22 02:41:22;;;;;;;7.25;2.55;;;7.90;99.90;;;;;;5114232;27;20039;-82
2022/09/22 02:44:03;;;;;;;7.30;3.35;;;7.90;99.90;;;;;;5114838;27;20080;-82
2022/09/22 02:46:42;;;;;;;7.85;3.45;;;7.90;99.90;;;;;;5114784;27;20121;-82
2022/09/22 02:49:18;;;;;;;7.20;3.30;;;7.90;99.90;;;;;;5114602;27;20043;-82
2022/09/22 02:51:47;;;;;;;7.95;2.92;;;7.90;99.90;;;;;;5114578;27;20452;-82
2022/09/22 02:54:15;;;;;;;8.63;3.58;;;7.90;99.90;;;;;;5114317;27;20035;-82
2022/09/22 02:56:42;;;;;;;8.23;3.13;;;7.90;99.90;;;;;;5114799;27;20134;-82
2022/09/22 02:59:10;;;;;;;8.00;3.35;;;7.90;99.90;;;;;;5114691;27;20050;-82
2022/09/22 03:01:36;;;;;;;8.93;4.03;;;7.90;99.90;;;;;;5096927;27;20041;-82
2022/09/22 03:04:03;;;;;;;9.35;4.13;;;8.00;99.90;;;;;;5114468;27;20043;-82
2022/09/22 03:06:28;;;;;;;12.70;5.82;;;7.90;99.90;;;;;;5114662;27;20083;-82
2022/09/22 03:08:54;;;;;;;7.32;3.05;;;8.00;99.90;;;;;;5114175;27;20039;-82
2022/09/22 03:11:19;;;;;;;8.25;3.42;;;8.00;99.90;;;;;;5114051;28;20554;-83
2022/09/22 03:13:45;;;;;;;7.15;3.65;;;8.00;99.90;;;;;;5114363;27;20557;-82
2022/09/22 03:16:12;;;;;;;8.07;4.03;;;8.00;99.90;;;;;;5113990;27;20099;-82
2022/09/22 03:18:37;;;;;;;8.93;3.80;;;8.00;99.90;;;;;;5114183;28;20446;-82
2022/09/22 03:21:03;;;;;;;11.13;4.80;;;8.00;99.90;;;;;;5097114;28;20039;-82
2022/09/22 03:23:29;;;;;;;8.82;4.70;;;8.00;99.90;;;;;;5113875;28;20035;-82
2022/09/22 03:25:55;;;;;;;11.10;6.65;;;8.00;99.90;;;;;;5114354;28;20104;-82
2022/09/22 03:28:20;;;;;;;11.35;6.13;;;8.00;99.90;;;;;;5114178;28;20039;-82
2022/09/22 03:30:46;;;;;;;11.15;5.50;;;8.00;99.90;;;;;;5115056;27;20043;-82
2022/09/22 03:33:11;;;;;;;7.60;3.75;;;8.00;99.90;;;;;;5118420;27;20039;-82
2022/09/22 03:35:37;;;;;;;5.68;2.53;;;8.00;99.90;;;;;;5118367;27;20082;-82
2022/09/22 03:38:04;;;;;;;2.33;1.27;;;7.90;99.90;;;;;;5101274;27;20039;-82
2022/09/22 03:40:29;;;;;;;4.18;1.30;;;7.80;99.90;;;;;;5117804;27;20035;-83
2022/09/22 03:42:55;;;;;;;1.63;1.10;;;7.80;99.90;;;;;;5117950;27;20088;-83
2022/09/22 03:45:20;;;;;;;4.43;1.88;;;7.70;99.90;;;;;;5118470;27;20065;-82
2022/09/22 03:47:46;;;;;;;7.63;2.90;;;7.60;99.90;;;;;;5117830;27;20389;-83
2022/09/22 03:50:12;;;;;;;8.35;3.92;;;7.60;99.90;;;;;;5118158;27;20045;-82
2022/09/22 03:52:40;;;;;;;10.90;5.38;;;7.70;99.90;;;;;;5136088;27;20043;-83
2022/09/22 03:55:06;;;;;;;11.52;6.30;;;7.70;99.90;;;;;;5117828;27;20123;-82
2022/09/22 03:57:32;;;;;;;14.45;6.05;;;7.70;99.90;;;;;;5117708;27;20046;-82
2022/09/22 03:59:58;;;;;;;10.80;5.18;;;7.70;99.90;;;;;;5117913;27;20047;-82
2022/09/22 04:02:23;;;;;;;10.73;6.00;;;7.70;99.90;;;;;;5117333;27;20039;-82
2022/09/22 04:04:49;;;;;;;11.95;6.30;;;7.70;99.90;;;;;;5117847;27;20070;-82
2022/09/22 04:07:14;;;;;;;9.07;5.53;;;7.80;99.90;;;;;;5117784;27;20141;-82
2022/09/22 04:09:40;;;;;;;7.43;3.80;;;7.80;99.90;;;;;;5100439;27;20415;-82
2022/09/22 04:12:07;;;;;;;8.15;3.70;;;7.80;99.90;;;;;;5100347;27;20091;-82
2022/09/22 04:14:33;;;;;;;8.18;3.78;;;7.70;99.90;;;;;;5117674;27;20043;-82
2022/09/22 04:16:58;;;;;;;9.00;2.28;;;7.70;99.90;;;;;;5117266;27;20035;-82
2022/09/22 04:19:24;;;;;;;4.32;1.40;;;7.70;99.90;;;;;;5100624;27;20035;-82
2022/09/22 04:21:49;;;;;;;7.05;2.75;;;7.60;99.90;;;;;;5117494;27;20035;-82
2022/09/22 04:24:16;;;;;;;5.55;2.10;;;7.50;99.90;;;;;;5117562;27;20403;-82
2022/09/22 04:26:41;;;;;;;2.47;1.10;;;7.50;99.90;;;;;;5117231;27;20047;-82
2022/09/22 04:29:07;;;;;;;3.08;1.40;;;7.40;99.90;;;;;;5100255;27;20054;-82
2022/09/22 04:31:33;;;;;;;3.30;1.45;;;7.40;99.90;;;;;;5116761;27;20041;-82
2022/09/22 04:33:58;;;;;;;6.00;1.83;;;7.30;99.90;;;;;;5100707;27;20438;-82
2022/09/22 04:36:24;;;;;;;6.75;2.88;;;7.30;99.90;;;;;;5117346;27;20512;-82
2022/09/22 04:38:49;;;;;;;6.18;2.78;;;7.30;99.90;;;;;;5116800;27;20039;-82
2022/09/22 04:41:15;;;;;;;5.88;2.58;;;7.30;99.90;;;;;;5116317;27;20039;-82
2022/09/22 04:43:41;;;;;;;6.13;2.83;;;7.30;99.90;;;;;;5100192;27;20047;-82
2022/09/22 04:46:07;;;;;;;5.63;2.50;;;7.30;99.90;;;;;;5116787;27;20519;-82
2022/09/22 04:48:32;;;;;;;7.72;3.25;;;7.30;99.90;;;;;;5116857;27;20039;-82
2022/09/22 04:50:58;;;;;;;8.85;3.30;;;7.30;99.90;;;;;;5116746;27;20450;-82
2022/09/22 04:53:24;;;;;;;8.55;4.07;;;7.30;99.90;;;;;;5116773;27;20074;-83
2022/09/22 04:55:49;;;;;;;9.55;4.50;;;7.30;99.90;;;;;;5116769;27;20032;-82
2022/09/22 04:58:15;;;;;;;8.77;4.38;;;7.30;99.90;;;;;;5099623;27;20039;-82
2022/09/22 05:00:41;;;;;;;12.25;5.65;;;7.30;99.90;;;;;;5135360;27;20065;-82
2022/09/22 05:03:09;;;;;;;10.07;4.70;;;7.30;99.90;;;;;;5116778;27;20152;-82
2022/09/22 05:05:34;;;;;;;10.63;5.70;;;7.30;99.90;;;;;;5116601;27;20054;-82
2022/09/22 05:08:00;;;;;;;8.52;5.20;;;7.30;99.90;;;;;;5098018;27;20039;-82
2022/09/22 05:10:29;;;;;;;9.35;5.25;;;7.30;99.90;;;;;;5114991;27;20088;-82
2022/09/22 05:12:55;;;;;;;8.75;4.18;;;7.30;99.90;;;;;;5115239;27;20039;-82
2022/09/22 05:15:21;;;;;;;7.40;3.80;;;7.30;99.90;;;;;;5115592;27;20126;-82
2022/09/22 05:17:49;;;;;;;9.52;5.07;;;7.20;99.90;;;;;;5098525;27;20042;-82
2022/09/22 05:20:15;;;;;;;9.00;4.72;;;7.30;99.90;;;;;;5115876;27;20070;-82
2022/09/22 05:22:41;;;;;;;8.45;4.97;;;7.20;99.90;;;;;;5114877;27;20043;-82
2022/09/22 05:25:12;;;;;;;10.10;5.60;;;7.20;99.90;;;;;;5115711;27;20548;-82
2022/09/22 05:27:46;;;;;;;12.23;5.25;;;7.20;99.90;;;;;;5115337;27;20047;-82
2022/09/22 05:30:12;;;;;;;11.38;5.32;;;7.20;99.90;;;;;;5114520;27;20047;-82
2022/09/22 05:32:40;;;;;;;9.50;5.07;;;7.20;99.90;;;;;;5098254;27;20404;-82
2022/09/22 05:35:06;;;;;;;10.75;5.03;;;7.20;99.90;;;;;;5115484;27;20045;-82
2022/09/22 05:37:31;;;;;;;10.07;4.97;;;7.20;99.90;;;;;;5117220;27;20039;-82
2022/09/22 05:39:57;;;;;;;8.43;4.75;;;7.20;99.90;;;;;;5145167;27;20095;-82
2022/09/22 05:42:22;;;;;;;10.27;5.65;;;7.20;99.90;;;;;;5118531;27;20050;-83
2022/09/22 05:44:48;;;;;;;11.50;6.25;;;7.30;99.90;;;;;;5118748;27;20038;-82
2022/09/22 05:47:13;;;;;;;10.07;5.13;;;7.30;99.90;;;;;;5135887;27;20087;-82
2022/09/22 05:49:39;;;;;;;10.27;5.97;;;7.30;99.90;;;;;;5118738;27;20404;-83
2022/09/22 05:52:05;;;;;;;8.75;5.05;;;7.30;99.90;;;;;;5134940;27;20039;-83
2022/09/22 05:54:30;;;;;;;11.73;6.13;;;7.30;99.90;;;;;;5117903;27;20472;-83
2022/09/22 05:56:56;;;;;;;10.95;6.00;;;7.40;99.90;;;;;;5135671;27;20361;-83
2022/09/22 05:59:21;;;;;;;10.27;5.30;;;7.40;99.90;;;;;;5118431;27;20510;-82
2022/09/22 06:01:47;;;;;;;7.70;2.72;;;7.40;99.90;;;;;;5135393;27;20125;-82
2022/09/22 06:04:12;;;;;;;2.58;1.20;;;7.40;99.90;;;;;;5135597;27;20125;-82
2022/09/22 06:06:38;;;;;;;2.42;1.15;;;7.20;99.90;;;;;;5125029;27;20492;-82
2022/09/22 06:09:04;;;;;;;3.47;1.30;;;7.10;99.90;;;;;;5106496;27;20077;-82
2022/09/22 06:11:29;;;;;;;3.42;1.10;;;6.90;99.90;;;;;;5126289;27;20503;-81
2022/09/22 06:13:55;;;;;;;2.33;1.00;;;6.80;99.90;;;;;;5102656;27;20110;-82
2022/09/22 06:16:20;;;;;;;2.65;1.17;;;6.70;99.90;;;;;;5114783;27;20458;-82
2022/09/22 06:18:46;;;;;;;2.80;1.20;;;6.70;99.90;;;;;;5114829;27;20042;-82
2022/09/22 06:21:16;;;;;;;3.38;1.48;;;6.60;99.90;;;;;;5116457;27;20045;-82
2022/09/22 06:23:42;;;;;;;3.72;1.60;;;6.70;99.90;;;;;;5124633;27;20099;-82
2022/09/22 06:26:08;;;;;;;3.58;1.33;;;6.70;99.90;;;;;;5108159;27;20117;-82
2022/09/22 06:28:34;;;;;;;2.42;1.20;;;6.70;99.90;;;;;;5096791;27;20062;-82
2022/09/22 06:31:00;;;;;;;6.63;1.80;;;6.70;99.90;;;;;;5113743;27;20070;-82
2022/09/22 06:33:27;;;;;;;3.60;1.50;;;6.80;99.90;;;;;;5114021;27;20038;-82
2022/09/22 06:35:53;;;;;;;4.45;1.90;;;6.80;99.90;;;;;;5114186;27;20038;-82
2022/09/22 06:38:19;;;;;;;6.15;1.95;;;6.80;99.90;;;;;;5096780;27;20035;-82
2022/09/22 06:40:45;;;;;;;5.72;1.90;;;6.90;99.90;;;;;;5096806;27;20039;-82
2022/09/22 06:43:21;;;;;;;3.00;1.42;;;6.90;99.90;;;;;;5096905;27;20043;-82
2022/09/22 06:45:51;;;;;;;4.35;1.65;;;6.90;99.90;;;;;;5097082;27;20046;-82
2022/09/22 06:48:18;;;;;;;3.53;1.55;;;7.00;99.90;;;;;;5114117;27;20043;-83
2022/09/22 06:50:50;;;;;;;5.03;1.98;;;7.00;99.90;;;;;;5113763;27;20043;-82
2022/09/22 06:53:16;;;;;;;9.75;4.45;;;7.10;99.90;;;;;;5114204;27;20467;-82
2022/09/22 06:55:42;;;;;;;9.63;4.25;;;7.20;99.90;;;;;;5097094;27;20074;-82
2022/09/22 06:58:09;;;;;;;10.98;6.40;;;7.30;99.90;;;;;;5096639;27;20062;-82
2022/09/22 07:00:35;;;;;;;12.25;5.60;;;7.40;99.90;;;;;;5114060;27;20102;-82
2022/09/22 07:03:21;;;;;;;10.63;6.47;;;7.50;99.90;;;;;;5096759;27;20126;-83
2022/09/22 07:05:56;;;;;;;10.50;5.85;;;7.70;99.90;;;;;;5113685;27;20035;-83
2022/09/22 07:08:22;;;;;;;11.32;5.47;;;7.80;99.90;;;;;;5116518;27;20404;-83
2022/09/22 07:10:56;;;;;;;13.00;5.88;;;7.90;99.90;;;;;;5128221;27;20049;-83
2022/09/22 07:13:24;;;;;;;12.95;7.85;;;8.00;99.90;;;;;;5134077;27;20066;-82
2022/09/22 07:15:50;;;;;;;13.07;7.47;;;8.10;99.90;;;;;;5117274;27;20088;-83
2022/09/22 07:18:15;;;;;;;11.20;6.97;;;8.30;99.90;;;;;;5117023;27;20035;-82
2022/09/22 07:20:44;;;;;;;11.75;7.60;;;8.40;99.90;;;;;;5133766;27;20042;-82
2022/09/22 07:23:17;;;;;;;12.77;7.53;;;8.50;99.90;;;;;;5117292;27;20100;-82
2022/09/22 07:25:49;;;;;;;10.70;6.70;;;8.50;99.90;;;;;;5117369;27;20085;-83
2022/09/22 07:28:14;;;;;;;12.23;7.40;;;8.70;99.90;;;;;;5134088;27;20031;-82
2022/09/22 07:30:40;;;;;;;12.07;7.55;;;8.80;99.90;;;;;;5116879;27;20054;-83
2022/09/22 07:33:06;;;;;;;14.73;8.65;;;8.80;99.90;;;;;;5133825;27;20415;-83
2022/09/22 07:35:34;;;;;;;14.05;8.85;;;9.00;99.90;;;;;;5133822;27;20099;-83
2022/09/22 07:38:01;;;;;;;17.75;8.57;;;9.10;99.90;;;;;;5133842;27;20031;-82
2022/09/22 07:40:26;;;;;;;15.10;8.73;;;9.20;99.90;;;;;;5134036;27;20042;-82
2022/09/22 07:42:52;;;;;;;13.93;8.15;;;9.30;99.90;;;;;;5116476;27;20114;-83
2022/09/22 07:45:17;;;;;;;13.40;7.60;;;9.40;99.90;;;;;;5134084;27;20039;-83
2022/09/22 07:50:28;;;;;;;15.07;8.25;;;9.60;99.90;;;;;;5133391;27;20091;-83
2022/09/22 07:52:54;;;;;;;14.07;7.78;;;9.80;99.90;;;;;;5133718;27;20030;-83
2022/09/22 07:55:22;;;;;;;13.07;8.07;;;9.90;99.90;;;;;;5133966;27;20510;-83
2022/09/22 07:57:53;;;;;;;13.43;7.93;;;10.00;99.90;;;;;;5133608;27;20087;-83
2022/09/22 08:00:19;;;;;;;13.32;7.80;;;10.10;99.90;;;;;;5134051;27;20050;-83
2022/09/22 08:02:56;;;;;;;16.63;8.98;;;10.20;99.90;;;;;;5133478;27;20039;-83
2022/09/22 08:05:24;;;;;;;13.48;7.82;;;10.30;99.90;;;;;;5133802;27;20045;-83
2022/09/22 08:07:50;;;;;;;12.50;7.05;;;10.50;99.90;;;;;;5131313;27;20127;-83
2022/09/22 08:10:16;;;;;;;13.10;6.97;;;10.60;99.90;;;;;;5114275;27;20038;-83
2022/09/22 08:12:42;;;;;;;16.75;8.35;;;10.70;99.90;;;;;;5116360;27;20073;-83
2022/09/22 08:15:09;;;;;;;13.05;7.82;;;10.80;99.90;;;;;;5134341;27;20070;-83
2022/09/22 08:17:36;;;;;;;14.73;7.38;;;10.90;99.90;;;;;;5105002;27;20388;-83
2022/09/22 08:20:03;;;;;;;12.23;6.35;;;11.10;99.90;;;;;;5116211;27;20730;-83
2022/09/22 08:22:29;;;;;;;14.48;6.47;;;11.20;99.90;;;;;;5117033;27;20046;-83
2022/09/22 08:24:55;;;;;;;13.60;6.82;;;11.30;99.90;;;;;;5117303;27;20039;-83
2022/09/22 08:27:21;;;;;;;10.70;5.90;;;11.40;99.90;;;;;;5099274;27;20075;-82
2022/09/22 08:29:46;;;;;;;11.48;6.38;;;11.60;99.90;;;;;;5116282;27;20071;-83
2022/09/22 08:32:16;;;;;;;13.65;6.50;;;11.70;99.90;;;;;;5099443;27;20057;-83
2022/09/22 08:34:41;;;;;;;12.50;5.65;;;11.80;99.90;;;;;;5116623;27;20053;-83
2022/09/22 08:37:08;;;;;;;10.75;5.47;;;11.90;99.90;;;;;;5099716;27;20035;-83
2022/09/22 08:39:35;;;;;;;12.00;4.80;;;12.00;99.90;;;;;;5116477;27;20043;-83
2022/09/22 08:42:19;;;;;;;10.45;4.82;;;12.10;99.90;;;;;;5115912;27;20050;-83
2022/09/22 08:44:52;;;;;;;9.55;4.15;;;12.30;99.90;;;;;;5116565;27;20043;-83
2022/09/22 08:51:50;;;;;;;;;;;12.40;99.90;;;;;;5099826;27;20035;-83
2022/09/22 08:53:10;;;;;;;12.20;4.82;;;12.60;99.90;;;;;;5116027;27;20079;-83
2022/09/22 08:55:41;;;;;;;11.73;4.85;;;12.70;99.90;;;;;;5116160;27;20031;-83
2022/09/22 08:58:27;;;;;;;14.43;5.20;;;12.90;99.90;;;;;;5099329;27;20035;-83
2022/09/22 09:01:15;;;;;;;9.75;4.18;;;12.90;99.90;;;;;;5116040;27;20078;-83
2022/09/22 09:04:14;;;;;;;9.82;3.90;;;13.10;99.90;;;;;;5099124;27;20035;-83
2022/09/22 09:07:06;;;;;;;9.27;4.22;;;13.20;99.90;;;;;;5060468;27;20492;-83
2022/09/22 09:09:32;;;;;;;11.90;4.85;;;13.40;99.90;;;;;;5115947;27;20051;-83
2022/09/22 09:12:11;;;;;;;11.73;4.53;;;13.50;99.90;;;;;;5115833;27;20039;-83
2022/09/22 09:14:52;;;;;;;11.82;4.95;;;13.60;99.90;;;;;;5124713;27;20109;-83
2022/09/22 09:17:32;;;;;;;11.00;4.20;;;13.80;99.90;;;;;;5136383;27;20058;-83
2022/09/22 09:20:04;;;;;;;10.32;4.05;;;13.90;99.90;;;;;;5136185;27;20042;-83
2022/09/22 09:22:41;;;;;;;10.03;3.87;;;14.00;99.90;;;;;;5136238;27;20046;-83
2022/09/22 09:25:18;;;;;;;13.93;4.22;;;14.10;99.90;;;;;;5119166;27;20530;-83
2022/09/22 09:27:48;;;;;;;9.38;3.70;;;14.20;99.90;;;;;;5117985;27;20492;-83
2022/09/22 09:30:21;;;;;;;8.13;3.30;;;14.30;99.90;;;;;;5118751;27;20046;-83
2022/09/22 09:32:49;;;;;;;;;;;14.40;99.90;;;;;;5119663;27;20396;-83
2022/09/22 09:35:35;;;;;;;7.95;3.42;;;14.50;99.90;;;;;;5136152;27;20261;-83
2022/09/22 09:38:02;;;;;;;8.40;3.53;;;14.60;99.90;;;;;;5135832;27;20031;-83
2022/09/22 09:40:27;;;;;;;9.35;3.50;;;14.70;99.90;;;;;;5125239;27;20397;-83
2022/09/22 09:43:05;;;;;;;10.15;3.22;;;14.70;99.90;;;;;;5107654;27;20049;-83
2022/09/22 09:45:48;;;;;;;9.90;3.33;;;14.90;99.90;;;;;;5108340;27;20047;-83
2022/09/22 09:48:29;;;;;;;8.57;2.95;;;15.00;99.90;;;;;;5126504;27;20034;-83
2022/09/22 09:51:04;;;;;;;8.90;2.80;;;15.10;99.90;;;;;;5108322;27;20043;-83
2022/09/22 09:53:41;;;;;;;8.35;3.00;;;15.20;99.90;;;;;;5101926;27;20114;-83
2022/09/22 09:56:28;;;;;;;8.27;2.78;;;15.30;99.90;;;;;;5120562;27;20039;-83
2022/09/22 10:01:45;;;;;;;10.15;3.25;;;15.40;99.90;;;;;;5126187;27;20038;-83
2022/09/22 10:04:31;;;;;;;8.43;2.80;;;15.60;99.90;;;;;;5135654;27;20031;-83
2022/09/22 10:07:23;;;;;;;10.32;2.63;;;15.70;99.90;;;;;;5132332;27;20046;-83
2022/09/22 10:09:50;;;;;;;8.52;2.72;;;15.80;99.90;;;;;;5125167;27;20142;-83
2022/09/22 10:12:20;;;;;;;6.78;2.22;;;15.80;99.90;;;;;;5109431;27;20480;-83
2022/09/22 10:14:51;;;;;;;11.93;2.67;;;15.90;99.90;;;;;;5118075;27;20395;-83
2022/09/22 10:17:27;;;;;;;7.82;2.53;;;16.00;99.90;;;;;;5117861;27;20035;-83
2022/09/22 10:20:19;;;;;;;10.25;2.78;;;16.10;99.90;;;;;;5117694;27;20045;-83
2022/09/22 10:22:44;;;;;;;9.82;2.60;;;16.20;99.90;;;;;;5117790;27;20046;-83
2022/09/22 10:25:26;;;;;;;7.53;2.38;;;16.30;99.90;;;;;;5135105;27;20039;-83
2022/09/22 10:28:03;;;;;;;7.30;2.25;;;16.40;99.90;;;;;;5118286;27;20058;-83
2022/09/22 10:30:36;;;;;;;9.10;2.63;;;16.50;99.90;;;;;;5135020;27;20066;-83
2022/09/22 10:33:13;;;;;;;9.45;2.50;;;16.60;99.90;;;;;;5117736;27;20086;-83
2022/09/22 10:36:05;;;;;;;9.35;2.50;;;16.70;99.90;;;;;;5117722;27;20041;-83
2022/09/22 10:38:34;;;;;;;10.88;2.88;;;16.70;99.90;;;;;;5112499;27;20050;-83
2022/09/22 10:41:11;;;;;;;9.85;2.40;;;16.80;99.90;;;;;;5116387;27;20432;-83
2022/09/22 10:43:53;;;;;;;7.70;2.45;;;16.80;96.90;;;;;;5134794;27;20046;-83
2022/09/22 10:46:50;;;;;;;7.30;2.72;;;16.90;97.80;;;;;;5135052;27;20039;-83
2022/09/22 10:49:41;;;;;;;7.85;2.65;;;17.00;98.90;;;;;;5124927;27;20114;-83
2022/09/22 10:52:34;;;;;;;8.98;2.40;;;17.10;98.90;;;;;;5118366;27;20121;-83
2022/09/22 10:55:00;;;;;;;8.80;3.17;;;17.20;97.30;;;;;;5104616;27;20058;-83
2022/09/22 10:57:41;;;;;;;7.10;3.15;;;17.40;95.10;;;;;;5119275;27;20047;-83
2022/09/22 11:00:17;;;;;;;8.05;3.72;;;17.40;95.60;;;;;;5113897;27;20043;-83
2022/09/22 11:03:20;;;;;;;8.85;3.55;;;17.60;95.90;;;;;;5113907;27;20039;-84
2022/09/22 11:12:17;;;;;;;10.57;3.70;;;17.80;89.70;;;;;;5113183;27;20043;-84
2022/09/22 11:15:05;;;;;;;8.50;4.10;;;17.80;91.50;;;;;;5113694;27;20039;-84
2022/09/22 11:17:44;;;;;;;10.85;3.80;;;17.90;91.30;;;;;;5112984;27;20114;-84
2022/09/22 11:20:23;;;;;;;8.88;3.70;;;18.00;87.80;;;;;;5114095;28;20065;-84
2022/09/22 11:23:15;;;;;;;8.75;3.83;;;18.00;91.10;;;;;;5096752;28;20031;-84
2022/09/22 11:25:47;;;;;;;9.25;4.32;;;18.00;86.00;;;;;;5114370;28;20039;-84
2022/09/22 11:28:27;;;;;;;10.10;3.63;;;17.90;85.20;;;;;;5141268;27;20456;-84
2022/09/22 11:30:56;;;;;;;9.48;4.18;;;17.80;89.40;;;;;;5121577;28;20666;-83
2022/09/22 11:33:43;;;;;;;9.30;4.05;;;17.80;84.70;;;;;;5096445;28;20038;-84
2022/09/22 11:36:19;;;;;;;9.05;4.13;;;17.80;87.40;;;;;;5113306;28;20461;-83
2022/09/22 11:38:51;;;;;;;9.43;4.00;;;17.90;86.60;;;;;;5113751;28;20039;-84
2022/09/22 11:41:41;;;;;;;10.40;4.20;;;17.90;82.90;;;;;;5113001;28;20496;-84
2022/09/22 11:44:32;;;;;;;8.57;3.83;;;18.10;85.20;;;;;;5096569;28;20039;-83
2022/09/22 11:47:25;;;;;;;10.48;3.70;;;18.30;84.90;;;;;;5096467;28;20046;-84
2022/09/22 11:50:22;;;;;;;9.00;3.78;;;18.50;83.80;;;;;;5113386;28;20088;-84
2022/09/22 11:53:10;;;;;;;10.63;3.85;;;18.60;78.30;;;;;;5099139;27;20373;-84
2022/09/22 11:55:45;;;;;;;9.60;3.45;;;18.50;74.10;;;;;;5117355;27;20068;-84
2022/09/22 11:58:16;;;;;;;7.65;3.28;;;18.50;78.90;;;;;;5117411;27;20031;-84
2022/09/22 12:00:48;;;;;;;9.07;3.30;;;18.40;76.60;;;;;;5100511;27;20397;-84
2022/09/22 12:03:22;;;;;;;8.00;3.25;;;18.30;76.40;;;;;;5117289;27;20047;-84
2022/09/22 12:05:55;;;;;;;8.43;3.30;;;18.30;74.70;;;;;;5100272;27;20042;-84
2022/09/22 12:08:24;;;;;;;10.38;3.70;;;18.30;76.00;;;;;;5117172;27;20087;-83
2022/09/22 12:10:50;;;;;;;7.90;2.83;;;18.40;74.80;;;;;;5099754;27;20122;-84
2022/09/22 12:13:29;;;;;;;8.63;3.10;;;18.50;76.70;;;;;;5117216;27;20127;-84
2022/09/22 12:16:21;;;;;;;9.02;3.20;;;18.80;77.60;;;;;;5101343;27;20035;-84
2022/09/22 12:19:01;;;;;;;8.63;3.10;;;19.00;80.00;;;;;;5097481;27;20032;-84
2022/09/22 12:21:53;;;;;;;9.38;3.60;;;19.20;76.50;;;;;;5096126;27;20039;-84
2022/09/22 12:24:19;;;;;;;8.75;3.17;;;19.30;73.00;;;;;;5095335;27;20496;-84
2022/09/22 12:26:47;;;;;;;8.80;3.15;;;19.20;69.70;;;;;;5114094;27;20038;-84
2022/09/22 12:29:15;;;;;;;8.52;3.08;;;19.20;69.50;;;;;;5113986;27;20095;-83
2022/09/22 12:31:44;;;;;;;10.63;3.22;;;19.10;74.10;;;;;;5113411;27;20484;-84
2022/09/22 12:34:18;;;;;;;9.35;3.50;;;19.10;72.40;;;;;;5097401;27;20039;-83
2022/09/22 12:36:45;;;;;;;9.98;3.20;;;19.00;67.10;;;;;;5113457;27;20071;-84
2022/09/22 12:39:10;;;;;;;6.85;2.90;;;19.10;67.70;;;;;;5115273;27;20069;-84
2022/09/22 12:42:17;;;;;;;9.07;3.30;;;19.20;68.40;;;;;;5103092;27;20376;-84
2022/09/22 12:44:53;;;;;;;8.57;3.70;;;19.50;66.00;;;;;;5135484;27;20556;-84
2022/09/22 12:47:21;;;;;;;9.15;3.35;;;19.50;64.90;;;;;;5135131;27;20031;-84
2022/09/22 12:49:51;;;;;;;9.43;3.38;;;19.60;66.00;;;;;;5117529;27;20035;-84
2022/09/22 12:52:38;;;;;;;8.85;3.40;;;19.70;65.30;;;;;;5135173;27;20039;-84
2022/09/22 12:55:17;;;;;;;9.10;3.55;;;19.90;65.90;;;;;;5134005;27;20567;-84
2022/09/22 12:57:46;;;;;;;10.27;3.35;;;20.20;68.40;;;;;;5117650;27;20034;-84
2022/09/22 13:00:19;;;;;;;9.40;3.33;;;20.40;65.30;;;;;;5117484;27;20046;-84
2022/09/22 13:02:48;;;;;;;9.10;3.50;;;20.50;64.50;;;;;;5134468;27;20035;-84
2022/09/22 13:05:23;;;;;;;9.32;3.55;;;20.70;62.40;;;;;;5110960;27;20027;-84
2022/09/22 13:07:48;;;;;;;11.35;3.10;;;20.80;63.00;;;;;;5121719;27;20437;-84
2022/09/22 13:10:22;;;;;;;8.60;3.30;;;20.90;62.70;;;;;;5104849;27;20537;-84
2022/09/22 13:13:00;;;;;;;9.30;3.63;;;20.90;60.90;;;;;;5109981;27;20039;-84
2022/09/22 13:15:45;;;;;;;8.18;3.50;;;20.60;58.00;;;;;;5129442;27;20122;-83
2022/09/22 13:18:44;;;;;;;8.40;3.20;;;20.50;59.00;;;;;;5119928;27;20118;-84
2022/09/22 13:21:12;;;;;;;9.43;3.20;;;20.40;60.50;;;;;;5057934;28;20136;-84
2022/09/22 13:23:52;;;;;;;9.32;3.33;;;20.50;60.00;;;;;;5033612;28;20049;-84
2022/09/22 13:26:21;;;;;;;10.18;3.58;;;21.40;62.60;;;;;;5057663;28;20028;-84
2022/09/22 13:29:09;;;;;;;9.25;3.00;;;21.90;57.80;;;;;;5051210;28;20033;-84
2022/09/22 13:31:36;;;;;;;9.63;3.13;;;21.70;57.80;;;;;;5029560;28;20428;-84